Terminal Aerodrome Forecast
Issued by NWS

Home | Current Version | Previous Version | Text Only | Print | Product List | Glossary On
Versions: 1 2 3 4 5 6 7 8 9 10 11 12 13 14 15 16 17 18 19 20 21 22 23 24 25 26 27 28 29 30 31 32 33 34 35 36 37 38 39 40 41 42 43 44
000
FTUS44 KHGX 221722
TAFUTS
TAF
KUTS 221722Z 2218/2318 13007KT P6SM VCTS SCT021 BKN050CB
      TEMPO 2219/2223 VRB15G25KT 3SM TSRA BR OVC015CB
     FM230200 15007KT 5SM -SHRA BR SCT007 OVC015
      TEMPO 2302/2306 VRB15G25KT 3SM TSRA BR OVC007CB
     FM230800 21007KT P6SM BKN025 OVC050
     FM231200 24008KT P6SM SCT050 BKN100
     FM231500 24010KT P6SM SKC=

USA.gov is the U.S. government's official web portal to all federal, state and local government web resources and services.